Time;durP1;ratioP1;P1;durP2;ratioP2;P2;SDS_P1;SDS_P2;PMS_P1;PMS_P2;Temp;Humidity;BMP_temperature;BMP_pressure;BME280_temperature;BME280_humidity;BME280_pressure;Samples;Min_cycle;Max_cycle;Signal;HPM_P1;HPM_P2
2021/08/20 00:01:58;;;;;;;26.85;2.03;;;;;;;15.74;68.35;100437.19;6338770;28;20218;-78
2021/08/20 00:05:06;;;;;;;8.43;1.45;;;;;;;15.76;68.78;100446.03;6351873;28;20233;-78
2021/08/20 00:08:16;;;;;;;22.38;2.20;;;;;;;15.77;68.91;100453.16;6363766;28;20249;-78
2021/08/20 00:11:20;;;;;;;15.35;1.60;;;;;;;15.72;70.13;100447.63;6363736;28;20183;-78
2021/08/20 00:14:29;;;;;;;2.60;1.67;;;;;;;15.65;70.55;100455.25;6363770;28;20190;-80
2021/08/20 00:17:33;;;;;;;12.45;1.50;;;;;;;15.67;70.91;100458.56;6362892;28;20213;-78
2021/08/20 00:20:37;;;;;;;12.77;1.38;;;;;;;15.73;70.10;100457.53;6362445;28;20399;-78
2021/08/20 00:23:41;;;;;;;6.45;1.50;;;;;;;15.69;70.34;100456.38;6363484;28;20186;-78
2021/08/20 00:26:45;;;;;;;9.98;1.52;;;;;;;15.66;71.62;100456.94;6363481;28;20189;-78
2021/08/20 00:29:51;;;;;;;18.23;1.40;;;;;;;15.58;71.43;100454.63;6345002;28;20244;-78
2021/08/20 00:32:55;;;;;;;23.30;1.70;;;;;;;15.53;71.98;100458.16;6362282;28;20182;-78
2021/08/20 00:35:59;;;;;;;18.23;1.70;;;;;;;15.51;71.46;100459.53;6362055;28;20588;-78
2021/08/20 00:39:07;;;;;;;8.38;1.95;;;;;;;15.57;70.71;100452.97;6362764;28;20186;-78
2021/08/20 00:42:11;;;;;;;11.30;1.70;;;;;;;15.47;72.36;100455.59;6363037;28;20182;-78
2021/08/20 00:45:18;;;;;;;8.38;1.42;;;;;;;15.45;72.37;100460.50;6368111;28;20220;-78
2021/08/20 00:48:23;;;;;;;7.53;1.58;;;;;;;15.47;71.72;100472.09;6368602;28;20206;-78
2021/08/20 00:51:29;;;;;;;17.27;1.80;;;;;;;15.46;72.04;100463.00;6367209;28;20371;-78
2021/08/20 00:54:34;;;;;;;2.55;1.30;;;;;;;15.35;72.08;100460.38;6349773;28;20229;-78
2021/08/20 00:57:40;;;;;;;1.23;1.10;;;;;;;15.26;72.86;100472.91;6368300;28;20261;-77
2021/08/20 01:00:47;;;;;;;7.63;1.20;;;;;;;15.25;73.10;100471.25;6549411;22;20229;-79
2021/08/20 01:03:51;;;;;;;7.47;1.40;;;;;;;15.30;72.45;100483.16;6322467;28;20217;-78
2021/08/20 01:07:01;;;;;;;11.13;1.55;;;;;;;15.33;72.41;100479.06;6323542;28;20183;-77
2021/08/20 01:10:07;;;;;;;18.08;1.48;;;;;;;15.28;73.30;100476.25;6324267;28;20222;-78
2021/08/20 01:13:11;;;;;;;16.40;1.50;;;;;;;15.20;73.44;100484.94;6342729;28;20218;-78
2021/08/20 01:16:17;;;;;;;15.68;1.73;;;;;;;15.09;74.52;100494.13;6342571;28;20182;-78
2021/08/20 01:19:22;;;;;;;9.10;1.63;;;;;;;15.17;74.01;100482.69;6323756;28;20247;-77
2021/08/20 01:22:27;;;;;;;11.88;1.38;;;;;;;14.99;75.03;100495.69;6323844;28;20198;-78
2021/08/20 01:25:34;;;;;;;11.52;1.33;;;;;;;14.98;73.94;100488.50;6342594;28;20262;-78
2021/08/20 01:28:38;;;;;;;7.75;1.48;;;;;;;14.87;74.22;100483.94;6323332;28;20221;-78
2021/08/20 01:31:42;;;;;;;4.43;1.35;;;;;;;14.85;74.64;100499.03;6323221;28;20199;-78
2021/08/20 01:34:47;;;;;;;10.23;1.63;;;;;;;14.92;74.26;100497.75;6342390;28;20183;-78
2021/08/20 01:37:51;;;;;;;12.00;1.35;;;;;;;14.85;75.99;100505.34;6340219;28;20439;-77
2021/08/20 01:40:58;;;;;;;9.88;1.13;;;;;;;14.85;75.20;100499.03;6324072;28;20224;-77
2021/08/20 01:44:03;;;;;;;3.70;1.00;;;;;;;14.87;74.87;100505.91;6340377;28;20203;-78
2021/08/20 01:47:10;;;;;;;7.40;1.00;;;;;;;14.90;74.19;100501.84;6341338;28;20432;-78
2021/08/20 01:50:15;;;;;;;7.05;1.00;;;;;;;14.91;73.65;100509.84;6341917;28;20207;-78
2021/08/20 01:53:21;;;;;;;3.80;0.93;;;;;;;14.99;73.08;100514.91;6339079;28;20273;-77
2021/08/20 01:56:32;;;;;;;3.92;0.98;;;;;;;15.01;72.08;100509.16;6315392;28;20205;-78
2021/08/20 01:59:42;;;;;;;2.15;0.85;;;;;;;14.98;71.97;100509.66;6322633;28;20210;-77
2021/08/20 02:02:48;;;;;;;2.95;1.00;;;;;;;15.07;71.82;100512.78;6322329;28;20242;-78
2021/08/20 02:05:54;;;;;;;2.35;1.00;;;;;;;14.92;72.76;100511.47;6339611;28;20198;-78
2021/08/20 02:08:58;;;;;;;4.05;0.80;;;;;;;14.82;73.45;100511.34;6323118;28;20199;-78
2021/08/20 02:12:08;;;;;;;1.65;0.98;;;;;;;14.87;74.18;100518.81;6322671;28;20198;-78
2021/08/20 02:15:23;;;;;;;4.03;0.90;;;;;;;14.85;73.98;100512.75;6323629;28;20206;-78
2021/08/20 02:18:29;;;;;;;2.08;0.90;;;;;;;14.85;73.93;100510.84;6322936;28;20199;-78
2021/08/20 02:21:36;;;;;;;8.48;0.98;;;;;;;14.71;74.32;100514.19;6323129;28;20238;-78
2021/08/20 02:24:54;;;;;;;1.75;0.90;;;;;;;14.67;72.75;100524.84;6326410;28;20183;-78
2021/08/20 02:28:04;;;;;;;2.25;0.95;;;;;;;14.53;72.52;100526.28;6325795;28;20205;-78
2021/08/20 02:31:09;;;;;;;5.47;0.90;;;;;;;14.59;73.90;100522.53;6325339;28;20280;-78
2021/08/20 02:34:14;;;;;;;2.67;0.93;;;;;;;14.71;73.13;100531.53;6324971;28;20549;-78
2021/08/20 02:37:19;;;;;;;1.45;0.88;;;;;;;14.73;73.06;100529.34;6342544;28;20190;-78
2021/08/20 02:40:24;;;;;;;2.75;0.90;;;;;;;14.68;74.58;100529.28;6322996;28;20383;-78
2021/08/20 02:43:30;;;;;;;2.15;0.90;;;;;;;14.61;74.41;100539.56;6341194;28;20183;-78
2021/08/20 02:46:35;;;;;;;1.13;0.70;;;;;;;14.71;73.95;100542.50;6321678;28;20490;-78
2021/08/20 02:49:42;;;;;;;0.73;0.73;;;;;;;14.75;72.93;100551.88;6321946;28;20226;-78
2021/08/20 02:52:49;;;;;;;1.33;1.02;;;;;;;14.76;72.43;100545.31;6321406;28;20459;-78
2021/08/20 02:55:54;;;;;;;2.83;0.90;;;;;;;14.78;72.11;100548.66;6322447;28;20198;-78
2021/08/20 02:59:15;;;;;;;3.17;0.90;;;;;;;14.80;71.79;100540.97;6321313;28;20390;-78
2021/08/20 03:02:20;;;;;;;3.70;1.00;;;;;;;14.81;72.05;100559.13;6320528;28;20297;-78
2021/08/20 03:05:25;;;;;;;3.92;0.85;;;;;;;14.84;71.53;100547.63;6321335;28;20198;-78
2021/08/20 03:08:29;;;;;;;5.55;1.17;;;;;;;14.66;73.70;100552.56;6338631;28;20190;-78
2021/08/20 03:11:35;;;;;;;4.40;1.10;;;;;;;14.63;73.59;100556.66;6321626;28;20226;-78
2021/08/20 03:14:41;;;;;;;2.97;0.80;;;;;;;14.63;73.78;100573.13;6320694;28;20376;-78
2021/08/20 03:17:45;;;;;;;0.93;0.68;;;;;;;14.67;72.75;100563.28;6321369;28;20199;-78
2021/08/20 03:20:50;;;;;;;0.75;0.70;;;;;;;14.73;72.08;100561.47;6321150;28;20274;-78
2021/08/20 03:24:16;;;;;;;3.20;1.00;;;;;;;14.50;73.29;100570.69;6337923;28;20230;-78
2021/08/20 03:27:20;;;;;;;1.00;0.75;;;;;;;14.34;74.30;100572.34;6321175;28;20248;-78
2021/08/20 03:30:42;;;;;;;5.82;0.88;;;;;;;14.45;73.21;100570.63;6319828;28;20499;-79
2021/08/20 03:33:47;;;;;;;1.35;0.90;;;;;;;14.36;74.96;100567.44;6320898;28;20209;-78
2021/08/20 03:36:55;;;;;;;2.28;1.13;;;;;;;14.36;75.00;100572.94;6320416;28;20341;-78
2021/08/20 03:40:09;;;;;;;3.35;0.90;;;;;;;14.33;75.17;100572.56;6320669;28;20283;-78
2021/08/20 03:43:19;;;;;;;0.80;0.80;;;;;;;14.20;74.44;100575.63;6319759;28;20198;-78
2021/08/20 03:46:30;;;;;;;0.70;0.70;;;;;;;14.17;74.99;100574.22;6319875;28;20593;-78
2021/08/20 03:49:34;;;;;;;3.25;0.90;;;;;;;14.20;73.92;100570.16;6339116;28;20252;-78
2021/08/20 03:52:39;;;;;;;2.08;0.73;;;;;;;14.11;73.67;100580.69;6320039;28;20268;-78
2021/08/20 03:55:44;;;;;;;3.15;0.70;;;;;;;14.08;74.99;100586.66;6320046;28;20199;-78
2021/08/20 03:59:22;;;;;;;3.50;0.90;;;;;;;14.11;74.50;100579.84;6317924;28;20230;-78
2021/08/20 04:02:35;;;;;;;0.90;0.77;;;;;;;14.03;75.55;100574.75;6319450;28;20313;-78
2021/08/20 04:05:42;;;;;;;1.85;1.00;;;;;;;14.01;75.35;100596.94;6338238;28;20233;-78
2021/08/20 04:08:49;;;;;;;2.33;0.95;;;;;;;14.05;76.11;100597.28;6319323;28;20213;-78
2021/08/20 04:12:26;;;;;;;2.40;0.98;;;;;;;14.04;74.74;100590.97;6282464;28;20230;-78
2021/08/20 04:15:43;;;;;;;1.38;0.95;;;;;;;14.02;76.92;100601.34;6341508;28;20250;-78
2021/08/20 04:18:53;;;;;;;2.28;1.10;;;;;;;14.01;75.97;100601.59;6323391;28;20199;-78
2021/08/20 04:21:58;;;;;;;1.58;0.93;;;;;;;13.97;76.36;100600.44;6341925;28;20222;-78
2021/08/20 04:25:04;;;;;;;2.20;0.95;;;;;;;13.92;76.12;100603.88;6321401;28;20243;-79
2021/08/20 04:28:42;;;;;;;1.00;1.00;;;;;;;13.95;77.21;100602.56;6338591;28;20182;-80
2021/08/20 04:31:56;;;;;;;0.90;0.90;;;;;;;14.01;76.26;100612.56;6320779;28;20222;-79
2021/08/20 04:35:22;;;;;;;1.08;1.08;;;;;;;13.93;76.11;100602.81;6337915;28;20403;-79
2021/08/20 04:38:44;;;;;;;0.95;0.95;;;;;;;14.09;75.35;100625.91;6319011;28;20266;-78
2021/08/20 04:42:12;;;;;;;0.82;0.82;;;;;;;14.18;75.79;100607.94;6338227;28;20205;-78
2021/08/20 04:45:30;;;;;;;0.93;0.80;;;;;;;14.13;76.26;100616.09;6319672;28;20199;-78
2021/08/20 04:48:51;;;;;;;3.35;0.80;;;;;;;14.18;75.87;100621.66;6319177;28;20537;-78
2021/08/20 04:52:00;;;;;;;2.92;0.90;;;;;;;14.16;76.01;100621.09;6337883;28;20273;-79
2021/08/20 04:55:25;;;;;;;2.50;0.90;;;;;;;14.13;75.86;100632.53;6319334;28;20234;-78
2021/08/20 04:58:35;;;;;;;5.57;1.00;;;;;;;14.07;75.26;100628.06;6320105;28;20183;-80
2021/08/20 05:01:39;;;;;;;3.63;1.00;;;;;;;14.14;76.00;100634.22;6319671;28;20234;-78
2021/08/20 05:04:46;;;;;;;2.85;1.08;;;;;;;14.21;75.91;100641.22;6338136;28;20189;-78
2021/08/20 05:07:51;;;;;;;1.10;1.00;;;;;;;14.20;75.50;100636.00;6337106;28;20204;-78
2021/08/20 05:10:55;;;;;;;6.18;1.95;;;;;;;14.20;75.10;100642.28;6338056;28;20260;-78
2021/08/20 05:13:59;;;;;;;1.13;0.90;;;;;;;14.26;76.30;100643.22;6338067;28;20182;-78
2021/08/20 05:17:06;;;;;;;6.03;1.20;;;;;;;14.27;76.05;100650.41;6336580;28;20206;-78
2021/08/20 05:20:13;;;;;;;4.45;1.13;;;;;;;14.36;75.27;100654.44;6337511;28;20183;-78
2021/08/20 05:23:18;;;;;;;2.40;1.30;;;;;;;14.37;75.35;100656.09;6337823;28;20187;-78
2021/08/20 05:26:25;;;;;;;4.95;1.27;;;;;;;14.44;75.32;100662.25;6337440;28;20190;-79
2021/08/20 05:29:32;;;;;;;9.68;2.42;;;;;;;14.51;75.32;100668.44;6337813;28;20197;-78
2021/08/20 05:32:37;;;;;;;9.25;2.85;;;;;;;14.53;75.53;100671.78;6341066;28;20211;-78
2021/08/20 05:35:46;;;;;;;19.63;5.40;;;;;;;14.54;75.00;100673.44;6342227;28;20191;-78
2021/08/20 05:38:51;;;;;;;15.50;4.32;;;;;;;14.62;75.02;100670.28;6340911;28;20534;-78
2021/08/20 05:41:55;;;;;;;10.68;4.30;;;;;;;14.68;75.91;100674.81;6341914;28;20209;-78
2021/08/20 05:45:01;;;;;;;10.05;3.72;;;;;;;14.71;75.52;100668.81;6341699;28;20189;-78
2021/08/20 05:48:07;;;;;;;5.20;3.40;;;;;;;14.75;74.86;100669.97;6341196;28;20183;-78
2021/08/20 05:51:12;;;;;;;4.30;1.77;;;;;;;14.77;73.16;100670.56;6341554;28;20246;-78
2021/08/20 05:54:20;;;;;;;1.80;1.70;;;;;;;14.74;73.31;100673.78;6340038;28;20190;-78
2021/08/20 05:57:24;;;;;;;2.28;1.40;;;;;;;14.93;72.33;100679.88;6340808;28;20246;-77
2021/08/20 06:00:28;;;;;;;1.50;1.30;;;;;;;14.97;71.85;100678.31;6341254;28;20189;-78
2021/08/20 06:03:41;;;;;;;1.58;1.17;;;;;;;15.05;71.65;100681.47;6339538;28;20303;-79
2021/08/20 06:07:02;;;;;;;2.42;1.30;;;;;;;15.13;71.77;100693.09;6322091;28;20274;-78
2021/08/20 06:10:12;;;;;;;4.82;1.20;;;;;;;15.21;70.27;100690.78;6324778;28;20183;-79
2021/08/20 06:13:20;;;;;;;1.00;1.00;;;;;;;15.24;70.04;100689.44;6342188;28;20210;-79
2021/08/20 06:16:24;;;;;;;4.85;1.08;;;;;;;15.22;70.25;100691.63;6341593;28;20189;-79
2021/08/20 06:19:28;;;;;;;6.03;1.10;;;;;;;15.28;68.52;100696.13;6340137;28;20530;-78
2021/08/20 06:22:32;;;;;;;2.72;0.73;;;;;;;15.39;69.19;100696.03;6341174;28;20431;-79
2021/08/20 06:25:39;;;;;;;1.10;0.88;;;;;;;15.51;69.07;100706.97;6341565;28;20190;-79
2021/08/20 06:28:45;;;;;;;1.77;1.02;;;;;;;15.54;68.48;100700.94;6341257;28;20183;-79
2021/08/20 06:31:51;;;;;;;5.05;1.08;;;;;;;15.68;67.74;100702.25;6322001;28;20223;-79
2021/08/20 06:34:55;;;;;;;2.35;0.95;;;;;;;15.83;68.37;100707.13;6340477;28;20409;-79
2021/08/20 06:38:00;;;;;;;0.70;0.70;;;;;;;15.94;65.75;100707.03;6341288;28;20183;-79
2021/08/20 06:41:24;;;;;;;0.80;0.80;;;;;;;16.05;65.02;100719.00;6340912;28;20251;-79
2021/08/20 06:44:31;;;;;;;0.93;0.93;;;;;;;16.21;65.22;100707.91;6321663;28;20296;-79
2021/08/20 06:47:35;;;;;;;0.85;0.82;;;;;;;16.45;65.01;100718.63;6341386;28;20242;-79
2021/08/20 06:50:41;;;;;;;7.45;1.35;;;;;;;16.63;65.62;100716.41;6341624;28;20183;-79
2021/08/20 06:53:45;;;;;;;12.35;1.50;;;;;;;16.74;64.34;100718.16;6341168;28;20213;-79
2021/08/20 06:56:53;;;;;;;1.73;0.70;;;;;;;16.82;63.89;100730.63;6340854;28;20412;-79
2021/08/20 06:59:57;;;;;;;1.33;0.75;;;;;;;16.85;62.81;100730.09;6340995;28;20190;-79
2021/08/20 07:03:03;;;;;;;1.73;0.77;;;;;;;16.99;63.69;100730.53;6340104;28;20266;-79
2021/08/20 07:06:09;;;;;;;3.58;0.90;;;;;;;17.06;62.65;100731.13;6339769;28;20183;-79
2021/08/20 07:09:13;;;;;;;1.45;1.00;;;;;;;17.17;63.26;100728.22;6339759;28;20183;-79
2021/08/20 07:12:19;;;;;;;9.15;1.17;;;;;;;17.26;62.33;100732.13;6340641;28;20210;-79
2021/08/20 07:15:23;;;;;;;0.80;0.80;;;;;;;17.24;62.78;100728.81;6339901;28;20250;-79
2021/08/20 07:18:28;;;;;;;0.63;0.63;;;;;;;17.38;62.42;100730.00;6340999;28;20183;-79
2021/08/20 07:21:33;;;;;;;1.10;1.05;;;;;;;17.48;61.82;100735.63;6340586;28;20183;-79
2021/08/20 07:24:37;;;;;;;1.42;0.88;;;;;;;17.52;61.07;100736.78;6340565;28;20250;-79
2021/08/20 07:27:44;;;;;;;2.50;0.82;;;;;;;17.58;58.59;100728.53;6340059;28;20244;-80
2021/08/20 07:30:48;;;;;;;9.32;0.88;;;;;;;17.64;60.21;100733.00;6340513;28;20183;-79
2021/08/20 07:33:55;;;;;;;4.35;1.00;;;;;;;17.67;59.23;100743.53;6339783;28;20238;-79
2021/08/20 07:36:59;;;;;;;0.70;0.70;;;;;;;17.72;59.22;100746.31;6340514;28;20182;-79
2021/08/20 07:40:04;;;;;;;2.83;1.20;;;;;;;17.70;57.99;100748.47;6338799;28;20501;-79
2021/08/20 07:43:11;;;;;;;1.05;0.80;;;;;;;17.77;57.20;100754.63;6340063;28;20256;-80
2021/08/20 07:46:17;;;;;;;1.50;0.70;;;;;;;17.69;56.80;100746.84;6339061;28;20354;-79
2021/08/20 07:49:22;;;;;;;5.75;0.65;;;;;;;17.74;57.44;100755.16;6339303;28;20478;-79
2021/08/20 07:52:26;;;;;;;0.82;0.70;;;;;;;17.71;57.47;100761.19;6339535;28;20190;-79
2021/08/20 07:55:30;;;;;;;0.52;0.52;;;;;;;17.65;54.76;100768.59;6340944;28;20183;-79
2021/08/20 07:58:35;;;;;;;0.75;0.73;;;;;;;17.71;55.84;100777.75;6339528;28;20182;-80
2021/08/20 08:01:40;;;;;;;3.33;0.60;;;;;;;17.68;55.67;100770.00;6339385;28;20380;-80
2021/08/20 08:04:44;;;;;;;0.60;0.60;;;;;;;17.67;56.71;100760.06;6339679;28;20193;-80
2021/08/20 08:07:49;;;;;;;0.70;0.70;;;;;;;17.74;56.25;100763.44;6339252;28;20190;-79
2021/08/20 08:10:56;;;;;;;1.25;0.65;;;;;;;17.68;55.33;100768.06;6339380;28;20254;-80
2021/08/20 08:14:04;;;;;;;4.72;0.60;;;;;;;17.78;54.67;100778.34;6338538;28;20211;-79
2021/08/20 08:17:08;;;;;;;4.30;0.80;;;;;;;17.76;55.18;100777.78;6338594;28;20375;-79
2021/08/20 08:20:15;;;;;;;1.38;0.60;;;;;;;17.82;53.52;100773.97;6339613;28;20182;-79
2021/08/20 08:23:19;;;;;;;0.52;0.50;;;;;;;17.74;55.23;100774.47;6339424;28;20191;-79
2021/08/20 08:26:24;;;;;;;1.70;0.57;;;;;;;17.76;54.02;100778.63;6339549;28;20246;-80
2021/08/20 08:29:29;;;;;;;0.68;0.60;;;;;;;17.76;52.82;100775.03;6338943;28;20186;-78
2021/08/20 08:32:37;;;;;;;1.48;0.60;;;;;;;17.75;54.23;100784.38;6339659;28;20211;-78
2021/08/20 08:36:00;;;;;;;0.60;0.60;;;;;;;17.80;54.60;100771.47;6339803;28;20205;-78
2021/08/20 08:39:05;;;;;;;4.22;0.70;;;;;;;17.81;53.89;100777.81;6339597;28;20190;-79
2021/08/20 08:42:12;;;;;;;1.58;0.90;;;;;;;17.81;52.67;100773.13;6338933;28;20246;-79
2021/08/20 08:45:18;;;;;;;1.55;0.60;;;;;;;17.85;54.04;100784.44;6338386;28;20362;-78
2021/08/20 08:48:23;;;;;;;2.15;0.70;;;;;;;17.84;53.82;100788.31;6339706;28;20205;-79
2021/08/20 08:51:27;;;;;;;0.70;0.70;;;;;;;17.92;54.67;100779.56;6340364;28;20229;-79
2021/08/20 08:54:31;;;;;;;0.60;0.60;;;;;;;17.88;54.51;100779.25;6339396;28;20551;-78
2021/08/20 08:57:35;;;;;;;0.70;0.70;;;;;;;17.84;54.09;100780.88;6339792;28;20232;-79
2021/08/20 09:00:42;;;;;;;0.70;0.70;;;;;;;17.88;54.36;100790.28;6340332;28;20244;-79
2021/08/20 09:04:06;;;;;;;1.23;0.85;;;;;;;17.95;53.00;100784.53;6339676;28;20194;-78
2021/08/20 09:07:13;;;;;;;0.82;0.82;;;;;;;18.00;53.46;100790.91;6346074;28;20190;-79
2021/08/20 09:10:19;;;;;;;0.77;0.77;;;;;;;18.00;54.79;100787.34;6346756;28;20183;-79
2021/08/20 09:13:25;;;;;;;0.70;0.70;;;;;;;17.97;55.41;100785.09;6346023;28;20502;-78
2021/08/20 09:16:41;;;;;;;1.27;0.68;;;;;;;18.01;55.32;100791.75;6346307;28;20220;-79
2021/08/20 09:19:45;;;;;;;0.60;0.60;;;;;;;18.09;55.70;100791.22;6345688;28;20447;-79
2021/08/20 09:22:54;;;;;;;0.70;0.70;;;;;;;18.01;53.89;100795.34;6345859;28;20264;-79
2021/08/20 09:26:00;;;;;;;0.70;0.70;;;;;;;18.04;54.01;100800.34;6343640;28;20382;-79
2021/08/20 09:29:13;;;;;;;0.80;0.80;;;;;;;18.13;55.79;100795.94;6342567;28;20197;-80
2021/08/20 09:32:21;;;;;;;0.60;0.60;;;;;;;18.08;54.18;100806.13;6343564;28;20209;-79
2021/08/20 09:35:25;;;;;;;0.80;0.80;;;;;;;18.13;55.60;100797.88;6344552;28;20248;-79
2021/08/20 09:38:31;;;;;;;0.70;0.70;;;;;;;18.07;54.57;100794.28;6346128;28;20260;-79
2021/08/20 09:41:37;;;;;;;0.90;0.90;;;;;;;18.17;54.43;100798.19;6344816;28;20254;-79
2021/08/20 09:44:41;;;;;;;0.70;0.70;;;;;;;18.16;54.81;100791.81;6344132;28;20253;-79
2021/08/20 09:47:48;;;;;;;0.98;0.70;;;;;;;18.25;55.05;100790.22;6345669;28;20183;-79
2021/08/20 09:50:53;;;;;;;0.70;0.70;;;;;;;18.30;55.81;100786.66;6345147;28;20183;-79
2021/08/20 09:53:58;;;;;;;0.80;0.80;;;;;;;18.38;55.20;100788.91;6344058;28;20262;-79
2021/08/20 09:57:03;;;;;;;0.93;0.93;;;;;;;18.36;55.48;100785.59;6344958;28;20182;-79
2021/08/20 10:00:10;;;;;;;1.52;1.02;;;;;;;18.42;54.46;100785.31;6345104;28;20187;-79
2021/08/20 10:03:19;;;;;;;1.00;0.90;;;;;;;18.53;55.03;100792.59;6344553;28;20235;-79
2021/08/20 10:06:25;;;;;;;1.60;0.70;;;;;;;18.54;54.62;100797.00;6345433;28;20225;-81
2021/08/20 10:09:33;;;;;;;1.27;0.77;;;;;;;18.57;54.38;100793.69;6344589;28;20270;-79
2021/08/20 10:12:40;;;;;;;0.80;0.80;;;;;;;18.65;55.50;100795.94;6343695;28;20187;-80
2021/08/20 10:15:45;;;;;;;5.68;1.05;;;;;;;18.64;55.04;100794.28;6343655;28;20211;-80
2021/08/20 10:18:51;;;;;;;1.48;0.93;;;;;;;18.68;55.86;100794.56;6343798;28;20236;-80
2021/08/20 10:21:57;;;;;;;0.85;0.85;;;;;;;18.61;55.59;100792.06;6343877;28;20183;-80
2021/08/20 10:25:02;;;;;;;0.93;0.93;;;;;;;18.65;53.88;100801.47;6343660;28;20229;-80
2021/08/20 10:28:13;;;;;;;0.60;0.60;;;;;;;18.72;56.56;100802.03;6345642;28;20183;-80
2021/08/20 10:31:18;;;;;;;1.00;1.00;;;;;;;18.80;55.04;100799.88;6347734;28;20252;-79
2021/08/20 10:34:39;;;;;;;0.98;0.80;;;;;;;18.80;55.91;100803.44;6348375;28;20207;-79
2021/08/20 10:37:43;;;;;;;0.70;0.70;;;;;;;18.90;55.03;100808.19;6344796;28;20187;-80
2021/08/20 10:41:07;;;;;;;3.65;0.90;;;;;;;19.00;54.71;100816.50;6343395;28;20541;-80
2021/08/20 10:44:17;;;;;;;0.90;0.90;;;;;;;19.02;54.91;100817.06;6344339;28;20260;-80
2021/08/20 10:47:24;;;;;;;3.63;0.80;;;;;;;19.14;55.22;100812.09;6343338;28;20183;-80
2021/08/20 10:50:38;;;;;;;0.70;0.70;;;;;;;19.14;55.10;100799.13;6343964;28;20183;-80
2021/08/20 10:53:48;;;;;;;0.70;0.70;;;;;;;19.12;53.64;100817.09;6343168;28;20182;-80
2021/08/20 10:56:52;;;;;;;3.20;0.95;;;;;;;19.14;54.46;100792.75;6342740;28;20256;-80
2021/08/20 10:59:57;;;;;;;4.68;0.93;;;;;;;19.30;54.27;100824.84;6343145;28;20183;-80
2021/08/20 11:03:08;;;;;;;1.65;1.05;;;;;;;19.28;54.97;100816.00;6342573;28;20241;-80
2021/08/20 11:06:42;;;;;;;0.90;0.90;;;;;;;19.34;53.42;100820.41;6343781;28;20218;-80
2021/08/20 11:09:48;;;;;;;0.85;0.85;;;;;;;19.37;54.75;100822.69;6340269;28;20203;-78
2021/08/20 11:13:01;;;;;;;1.15;0.80;;;;;;;19.40;52.96;100819.38;6340895;28;20228;-78
2021/08/20 11:16:05;;;;;;;2.55;0.80;;;;;;;19.47;54.47;100819.91;6340598;28;20408;-80
2021/08/20 11:19:09;;;;;;;2.63;0.90;;;;;;;19.58;54.12;100816.06;6341429;28;20183;-80
2021/08/20 11:22:19;;;;;;;1.20;1.20;;;;;;;19.68;53.90;100826.28;6341959;28;20205;-80
2021/08/20 11:25:26;;;;;;;3.05;0.80;;;;;;;19.73;52.61;100821.59;6341279;28;20187;-80
2021/08/20 11:28:32;;;;;;;1.70;0.95;;;;;;;19.63;52.42;100827.13;6340780;28;20190;-80
2021/08/20 11:31:37;;;;;;;3.45;0.88;;;;;;;19.74;53.77;100831.56;6340684;28;20190;-80
2021/08/20 11:34:51;;;;;;;2.65;0.93;;;;;;;19.65;52.32;100830.44;6340635;28;20236;-80
2021/08/20 11:37:56;;;;;;;2.50;1.00;;;;;;;19.73;53.48;100832.66;6340660;28;20187;-80
2021/08/20 11:41:06;;;;;;;0.90;0.90;;;;;;;19.67;54.02;100830.97;6340960;28;20215;-80
2021/08/20 11:44:28;;;;;;;4.32;1.00;;;;;;;19.81;53.87;100821.03;6341402;28;20190;-80
2021/08/20 11:47:34;;;;;;;1.00;1.00;;;;;;;19.75;54.22;100816.59;6341823;28;20189;-80
2021/08/20 11:50:38;;;;;;;3.03;1.10;;;;;;;19.71;52.72;100832.09;6340475;28;20541;-80
2021/08/20 11:53:48;;;;;;;1.90;0.80;;;;;;;19.76;53.81;100826.56;6340921;28;20205;-80
2021/08/20 11:56:55;;;;;;;4.32;1.25;;;;;;;19.90;53.51;100830.41;6341007;28;20270;-80
2021/08/20 11:59:59;;;;;;;5.60;1.10;;;;;;;20.12;53.23;100843.13;6340756;28;20249;-80
2021/08/20 12:03:08;;;;;;;4.40;1.27;;;;;;;20.14;52.45;100829.81;6341249;28;20226;-80
2021/08/20 12:06:14;;;;;;;3.63;1.00;;;;;;;20.20;51.99;100829.56;6340319;28;20377;-80
2021/08/20 12:09:22;;;;;;;3.65;1.02;;;;;;;20.27;52.06;100834.81;6341642;28;20221;-80
2021/08/20 12:12:33;;;;;;;1.15;1.08;;;;;;;20.18;52.25;100830.94;6341680;28;20182;-80
2021/08/20 12:15:40;;;;;;;2.90;1.10;;;;;;;20.20;51.50;100834.25;6339924;28;20556;-80
2021/08/20 12:18:44;;;;;;;1.02;1.02;;;;;;;20.26;51.75;100838.72;6341563;28;20182;-80
2021/08/20 12:21:51;;;;;;;5.78;1.00;;;;;;;20.36;51.48;100838.69;6341340;28;20353;-80
2021/08/20 12:24:55;;;;;;;4.65;1.10;;;;;;;20.34;51.79;100835.34;6342872;28;20183;-80
2021/08/20 12:28:11;;;;;;;1.38;1.00;;;;;;;20.36;52.22;100847.00;6340923;28;20250;-80
2021/08/20 12:31:15;;;;;;;2.53;1.05;;;;;;;20.30;53.09;100845.34;6338658;28;20236;-80
2021/08/20 12:34:27;;;;;;;3.50;1.10;;;;;;;20.25;52.94;100842.59;6339425;28;20457;-79
2021/08/20 12:37:32;;;;;;;1.27;1.02;;;;;;;20.08;52.67;100842.03;6340974;28;20207;-79
2021/08/20 12:40:39;;;;;;;0.98;0.98;;;;;;;20.19;52.52;100844.50;6345047;28;20194;-78
2021/08/20 12:43:45;;;;;;;2.00;0.93;;;;;;;20.28;52.80;100847.56;6345344;28;20187;-79
2021/08/20 12:46:49;;;;;;;1.33;1.23;;;;;;;20.25;52.44;100848.97;6345895;28;20232;-79
2021/08/20 12:50:01;;;;;;;6.25;1.40;;;;;;;20.32;53.21;100843.13;6344220;28;20183;-79
2021/08/20 12:53:07;;;;;;;1.27;1.25;;;;;;;20.19;53.40;100838.13;6343883;28;20195;-78
2021/08/20 12:56:12;;;;;;;1.52;1.52;;;;;;;20.20;53.38;100850.88;6342135;28;20210;-78
2021/08/20 12:59:29;;;;;;;0.90;0.90;;;;;;;20.21;53.37;100847.00;6341832;28;20257;-78
2021/08/20 13:02:33;;;;;;;2.47;1.02;;;;;;;20.37;53.92;100852.25;6342212;28;20238;-78
2021/08/20 13:05:39;;;;;;;1.10;1.10;;;;;;;20.40;53.63;100850.84;6342500;28;20200;-78
2021/08/20 13:08:42;;;;;;;1.00;1.00;;;;;;;20.40;53.54;100853.63;6345121;28;20220;-79
2021/08/20 13:11:47;;;;;;;1.02;1.02;;;;;;;20.41;54.14;100846.97;6345226;28;20190;-79
2021/08/20 13:14:54;;;;;;;3.50;1.08;;;;;;;20.38;52.95;100847.53;6325090;28;20198;-80
2021/08/20 13:17:58;;;;;;;1.20;1.20;;;;;;;20.44;53.06;100846.44;6343165;28;20238;-80
2021/08/20 13:21:03;;;;;;;1.10;1.10;;;;;;;20.41;51.19;100846.97;6342584;28;20183;-80
2021/08/20 13:24:08;;;;;;;3.78;1.00;;;;;;;20.56;51.22;100852.47;6343239;28;20187;-80
2021/08/20 13:27:12;;;;;;;3.08;1.17;;;;;;;20.63;51.37;100844.69;6342486;28;20577;-80
2021/08/20 13:30:18;;;;;;;9.32;1.00;;;;;;;20.68;49.67;100852.97;6342460;28;20269;-78
2021/08/20 13:33:23;;;;;;;1.70;1.60;;;;;;;20.70;50.66;100859.06;6342112;28;20183;-80
2021/08/20 13:36:27;;;;;;;0.90;0.90;;;;;;;20.69;50.80;100854.63;6342685;28;20234;-78
2021/08/20 13:39:31;;;;;;;1.20;1.20;;;;;;;20.72;51.47;100854.09;6342472;28;20260;-78
2021/08/20 13:42:35;;;;;;;3.80;1.00;;;;;;;20.81;52.03;100851.53;6342987;28;20189;-78
2021/08/20 13:45:44;;;;;;;1.25;1.20;;;;;;;20.80;51.59;100872.88;6341432;28;20182;-78
2021/08/20 13:48:51;;;;;;;1.58;1.00;;;;;;;20.72;51.80;100876.25;6341673;28;20520;-78
2021/08/20 13:51:56;;;;;;;1.02;1.02;;;;;;;20.72;52.38;100876.25;6341232;28;20214;-79
2021/08/20 13:55:01;;;;;;;1.20;1.20;;;;;;;20.68;52.85;100875.16;6342728;28;20246;-79
2021/08/20 13:58:07;;;;;;;1.10;1.10;;;;;;;20.54;52.92;100893.50;6341633;28;20506;-79
2021/08/20 14:01:13;;;;;;;5.35;1.40;;;;;;;20.45;53.63;100893.25;6342332;28;20226;-79
2021/08/20 14:04:19;;;;;;;5.88;1.17;;;;;;;20.42;54.67;100904.88;6343429;28;20206;-79
2021/08/20 14:07:24;;;;;;;2.17;1.05;;;;;;;20.11;55.95;100924.59;6342055;28;20358;-79
2021/08/20 14:10:28;;;;;;;1.10;1.10;;;;;;;20.09;55.07;100932.31;6341364;28;20183;-79
2021/08/20 14:13:33;;;;;;;1.63;1.13;;;;;;;20.08;54.62;100925.13;6341667;28;20218;-79
2021/08/20 14:16:38;;;;;;;0.85;0.85;;;;;;;19.88;53.58;100931.47;6322840;28;20400;-79
2021/08/20 14:19:43;;;;;;;1.58;0.90;;;;;;;19.91;53.35;100931.75;6341040;28;20467;-79
2021/08/20 14:22:48;;;;;;;1.25;1.13;;;;;;;19.67;53.15;100952.75;6341898;28;20186;-79
2021/08/20 14:25:52;;;;;;;1.92;1.00;;;;;;;19.52;53.29;100949.97;6342273;28;20190;-79
2021/08/20 14:28:58;;;;;;;1.23;1.13;;;;;;;19.41;55.84;100959.38;6341943;28;20251;-79
2021/08/20 14:32:04;;;;;;;1.10;1.10;;;;;;;19.46;55.97;100962.16;6342461;28;20259;-79